M/V Bugra Tomba — TCEJ — position and weather

sailwx.info

Track history (hours):
 
Tides and Currents Weather Stations Pressure Air Temp Water Temp Dewpoint Dewpoint Depression Visibility Wind Speed Wind Dir Waves Ship Positions

M/V Bugra Tomba

Last reported at 2015-Feb-06 16:18 UTC. Time now 2015-Mar-05 12:02 UTC.
Position N 33°12' E 029°31'.
Warning: this ship's position is 26 days out of date.

Length 99 m; draft 6.3 m.

Type: Ship. MMSI: 271000025.

Date/timePositionNaut miles runAvg speedWind from/ knotsBaromVisibWave heightAir tempDewpointWater temp
2015-Feb-06 16:18N 33°12' E 029°31'8 7.1
2015-Feb-06 15:10N 33°19' E 029°28'  
2015-Feb-02 03:16N 40°59' E 028°56'0 0.0
2015-Feb-02 00:10N 40°59' E 028°56'0 0.0
2015-Feb-01 22:22N 40°59' E 028°56'0 0.0
2015-Feb-01 20:10N 40°59' E 028°56'0 0.0
2015-Feb-01 19:16N 40°59' E 028°56'0 0.0
2015-Feb-01 18:32N 40°59' E 028°56'0 0.0
2015-Feb-01 17:31N 40°59' E 028°56'0 0.0
2015-Feb-01 16:31N 40°59' E 028°56'0 0.0
2015-Feb-01 15:33N 40°59' E 028°56'0 0.0
2015-Feb-01 14:31N 40°59' E 028°56'0 0.0
2015-Feb-01 13:23N 40°59' E 028°56'0 0.0
2015-Feb-01 12:31N 40°59' E 028°56'0 0.0
2015-Feb-01 11:33N 40°59' E 028°56'0 0.0
2015-Feb-01 10:29N 40°59' E 028°56'0 0.0
2015-Feb-01 09:33N 40°59' E 028°56'0 0.0
2015-Feb-01 08:33N 40°59' E 028°56'0 0.0
2015-Feb-01 07:33N 40°59' E 028°56'0 0.0
2015-Feb-01 06:28N 40°59' E 028°56'0 0.0
2015-Feb-01 05:31N 40°59' E 028°56'0 0.0
2015-Feb-01 04:31N 40°59' E 028°56'0 0.0
2015-Feb-01 03:30N 40°59' E 028°56'0 0.0
2015-Feb-01 01:31N 40°59' E 028°56'0 0.0
2015-Feb-01 00:28N 40°59' E 028°56'0 0.0
2015-Jan-31 23:33N 40°59' E 028°56'0 0.0
2015-Jan-31 22:32N 40°59' E 028°56'0 0.0
2015-Jan-31 21:32N 40°59' E 028°56'0 0.0
2015-Jan-31 20:31N 40°59' E 028°56'0 0.0
2015-Jan-31 19:27N 40°59' E 028°56'0 0.0
2015-Jan-31 18:32N 40°59' E 028°56'0 0.0
2015-Jan-31 17:27N 40°59' E 028°56'0 0.0
2015-Jan-31 16:31N 40°59' E 028°56'0 0.0
2015-Jan-31 15:32N 40°59' E 028°56'0 0.0
2015-Jan-31 14:24N 40°59' E 028°56'0 0.0
2015-Jan-31 13:32N 40°59' E 028°56'0 0.0
2015-Jan-31 12:29N 40°59' E 028°56'0 0.0
2015-Jan-31 11:33N 40°59' E 028°56'0 0.0
2015-Jan-31 10:25N 40°59' E 028°56'0 0.3
2015-Jan-31 09:31N 40°59' E 028°57'0 0.1
2015-Jan-31 08:32N 40°59' E 028°56'0 0.1
2015-Jan-31 07:24N 40°59' E 028°56'0 0.0
2015-Jan-31 06:23N 40°59' E 028°56'0 0.0
2015-Jan-31 05:33N 40°59' E 028°56'0 0.0
2015-Jan-31 04:33N 40°59' E 028°56'0 0.0
2015-Jan-31 03:32N 40°59' E 028°56'18 1.1
2015-Jan-30 11:32N 41°16' E 029°05'0 0.0
2015-Jan-30 10:33N 41°16' E 029°05'0 0.0
2015-Jan-30 09:32N 41°16' E 029°05'1 1.1
2015-Jan-30 08:31N 41°17' E 029°06'8 8.8
2015-Jan-30 07:33N 41°18' E 029°17'9 9.2
2015-Jan-30 06:33N 41°18' E 029°29'10 9.5
2015-Jan-30 05:31N 41°19' E 029°42'375 8.5
2015-Jan-28 09:15N 44°20' E 037°11'7 9.8
2015-Jan-28 08:33N 44°23' E 037°19'1010.3
2015-Jan-28 07:33N 44°28' E 037°32'1110.6
2015-Jan-28 06:33N 44°34' E 037°44'8 8.3
2015-Jan-28 05:33N 44°41' E 037°49'3 2.9
2015-Jan-28 04:33N 44°44' E 037°48'0 0.0
2015-Jan-28 03:33N 44°44' E 037°48'0 0.0
2015-Jan-28 02:33N 44°44' E 037°48'0 0.0
2015-Jan-28 01:33N 44°44' E 037°48'0 0.0
2015-Jan-28 00:33N 44°44' E 037°48'0 0.0
2015-Jan-27 23:33N 44°44' E 037°48'0 0.0
2015-Jan-27 22:33N 44°44' E 037°48'0 0.0
2015-Jan-27 21:33N 44°44' E 037°48'0 0.0
2015-Jan-27 20:33N 44°44' E 037°48'0 0.0
2015-Jan-27 19:33N 44°44' E 037°48'0 0.0
2015-Jan-27 18:33N 44°44' E 037°48'0 0.0
2015-Jan-27 17:33N 44°44' E 037°48'0 0.0
2015-Jan-27 16:33N 44°44' E 037°48'  
Track history (hours):
 
Tides and Currents Weather Stations Pressure Air Temp Water Temp Dewpoint Dewpoint Depression Visibility Wind Speed Wind Dir Waves Ship Positions

M/V Bugra Tomba

Last reported at 2015-Feb-06 16:18 UTC. Time now 2015-Mar-05 12:02 UTC.
Position N 33°12' E 029°31'.
Warning: this ship's position is 26 days out of date.

Length 99 m; draft 6.3 m.

Type: Ship. MMSI: 271000025.

Date/timePositionNaut miles runAvg speedWind from/ knotsBaromVisibWave heightAir tempDewpointWater temp
2015-Feb-06 16:18N 33°12' E 029°31'8 7.1
2015-Feb-06 15:10N 33°19' E 029°28'  
2015-Feb-02 03:16N 40°59' E 028°56'0 0.0
2015-Feb-02 00:10N 40°59' E 028°56'0 0.0
2015-Feb-01 22:22N 40°59' E 028°56'0 0.0
2015-Feb-01 20:10N 40°59' E 028°56'0 0.0
2015-Feb-01 19:16N 40°59' E 028°56'0 0.0
2015-Feb-01 18:32N 40°59' E 028°56'0 0.0
2015-Feb-01 17:31N 40°59' E 028°56'0 0.0
2015-Feb-01 16:31N 40°59' E 028°56'0 0.0
2015-Feb-01 15:33N 40°59' E 028°56'0 0.0
2015-Feb-01 14:31N 40°59' E 028°56'0 0.0
2015-Feb-01 13:23N 40°59' E 028°56'0 0.0
2015-Feb-01 12:31N 40°59' E 028°56'0 0.0
2015-Feb-01 11:33N 40°59' E 028°56'0 0.0
2015-Feb-01 10:29N 40°59' E 028°56'0 0.0
2015-Feb-01 09:33N 40°59' E 028°56'0 0.0
2015-Feb-01 08:33N 40°59' E 028°56'0 0.0
2015-Feb-01 07:33N 40°59' E 028°56'0 0.0
2015-Feb-01 06:28N 40°59' E 028°56'0 0.0
2015-Feb-01 05:31N 40°59' E 028°56'0 0.0
2015-Feb-01 04:31N 40°59' E 028°56'0 0.0
2015-Feb-01 03:30N 40°59' E 028°56'0 0.0
2015-Feb-01 01:31N 40°59' E 028°56'0 0.0
2015-Feb-01 00:28N 40°59' E 028°56'0 0.0
2015-Jan-31 23:33N 40°59' E 028°56'0 0.0
2015-Jan-31 22:32N 40°59' E 028°56'0 0.0
2015-Jan-31 21:32N 40°59' E 028°56'0 0.0
2015-Jan-31 20:31N 40°59' E 028°56'0 0.0
2015-Jan-31 19:27N 40°59' E 028°56'0 0.0
2015-Jan-31 18:32N 40°59' E 028°56'0 0.0
2015-Jan-31 17:27N 40°59' E 028°56'0 0.0
2015-Jan-31 16:31N 40°59' E 028°56'0 0.0
2015-Jan-31 15:32N 40°59' E 028°56'0 0.0
2015-Jan-31 14:24N 40°59' E 028°56'0 0.0
2015-Jan-31 13:32N 40°59' E 028°56'0 0.0
2015-Jan-31 12:29N 40°59' E 028°56'0 0.0
2015-Jan-31 11:33N 40°59' E 028°56'0 0.0
2015-Jan-31 10:25N 40°59' E 028°56'0 0.3
2015-Jan-31 09:31N 40°59' E 028°57'0 0.1
2015-Jan-31 08:32N 40°59' E 028°56'0 0.1
2015-Jan-31 07:24N 40°59' E 028°56'0 0.0
2015-Jan-31 06:23N 40°59' E 028°56'0 0.0
2015-Jan-31 05:33N 40°59' E 028°56'0 0.0
2015-Jan-31 04:33N 40°59' E 028°56'0 0.0
2015-Jan-31 03:32N 40°59' E 028°56'18 1.1
2015-Jan-30 11:32N 41°16' E 029°05'0 0.0
2015-Jan-30 10:33N 41°16' E 029°05'0 0.0
2015-Jan-30 09:32N 41°16' E 029°05'1 1.1
2015-Jan-30 08:31N 41°17' E 029°06'8 8.8
2015-Jan-30 07:33N 41°18' E 029°17'9 9.2
2015-Jan-30 06:33N 41°18' E 029°29'10 9.5
2015-Jan-30 05:31N 41°19' E 029°42'375 8.5
2015-Jan-28 09:15N 44°20' E 037°11'7 9.8
2015-Jan-28 08:33N 44°23' E 037°19'1010.3
2015-Jan-28 07:33N 44°28' E 037°32'1110.6
2015-Jan-28 06:33N 44°34' E 037°44'8 8.3
2015-Jan-28 05:33N 44°41' E 037°49'3 2.9
2015-Jan-28 04:33N 44°44' E 037°48'0 0.0
2015-Jan-28 03:33N 44°44' E 037°48'0 0.0
2015-Jan-28 02:33N 44°44' E 037°48'0 0.0
2015-Jan-28 01:33N 44°44' E 037°48'0 0.0
2015-Jan-28 00:33N 44°44' E 037°48'0 0.0
2015-Jan-27 23:33N 44°44' E 037°48'0 0.0
2015-Jan-27 22:33N 44°44' E 037°48'0 0.0
2015-Jan-27 21:33N 44°44' E 037°48'0 0.0
2015-Jan-27 20:33N 44°44' E 037°48'0 0.0
2015-Jan-27 19:33N 44°44' E 037°48'0 0.0
2015-Jan-27 18:33N 44°44' E 037°48'0 0.0
2015-Jan-27 17:33N 44°44' E 037°48'0 0.0
2015-Jan-27 16:33N 44°44' E 037°48'  

Dump ship's entire track history